createdAt,value
2022-11-03T00:01:35.019Z,76576.97
2022-11-03T00:04:02.870Z,76568.50
2022-11-03T00:06:30.515Z,76576.97
2022-11-03T00:09:00.861Z,76585.44
2022-11-03T00:11:28.739Z,76587.56
2022-11-03T00:13:56.385Z,76587.56
2022-11-03T00:16:24.014Z,76600.25
2022-11-03T00:18:52.246Z,76598.16
2022-11-03T00:21:20.237Z,76598.16
2022-11-03T00:23:47.994Z,76604.50
2022-11-03T00:26:18.285Z,76604.50
2022-11-03T00:28:46.876Z,76606.63
2022-11-03T00:31:16.317Z,76612.97
2022-11-03T00:33:44.535Z,76608.72
2022-11-03T00:36:15.116Z,76615.09
2022-11-03T00:38:43.414Z,76608.72
2022-11-03T00:41:11.723Z,76617.19
2022-11-03T00:43:42.182Z,76617.19
2022-11-03T00:46:10.564Z,76615.09
2022-11-03T00:48:38.885Z,76621.44
2022-11-03T00:51:09.266Z,76623.56
2022-11-03T00:53:38.158Z,76617.19
2022-11-03T00:56:07.087Z,76625.66
2022-11-03T00:58:34.976Z,76625.66
2022-11-03T01:01:05.876Z,76629.91
2022-11-03T01:03:34.554Z,76632.00
2022-11-03T01:06:20.195Z,76632.00
2022-11-03T01:08:48.238Z,76629.91
2022-11-03T01:11:35.734Z,76625.66
2022-11-03T01:14:03.856Z,76634.13
2022-11-03T01:16:33.439Z,76636.25
2022-11-03T01:19:01.383Z,76640.47
2022-11-03T01:21:29.318Z,76642.59
2022-11-03T01:23:57.033Z,76644.72
2022-11-03T01:26:24.682Z,76646.84
2022-11-03T01:28:52.479Z,76646.84
2022-11-03T01:31:21.599Z,76644.72
2022-11-03T01:33:52.691Z,76655.31
2022-11-03T01:36:20.804Z,76665.88
2022-11-03T01:38:48.943Z,76672.22
2022-11-03T01:41:18.750Z,76663.78
2022-11-03T01:43:48.617Z,76672.22
2022-11-03T01:46:18.586Z,76687.06
2022-11-03T01:48:49.645Z,76687.06
2022-11-03T01:51:22.272Z,76689.16
2022-11-03T01:53:51.898Z,76695.53
2022-11-03T01:56:20.771Z,76689.16
2022-11-03T01:58:50.189Z,76684.94
2022-11-03T02:01:18.115Z,76693.41
2022-11-03T02:03:49.238Z,76695.53
2022-11-03T02:06:20.012Z,76684.94
2022-11-03T02:08:50.393Z,76682.81
2022-11-03T02:11:32.027Z,76684.94
2022-11-03T02:13:59.765Z,76691.28
2022-11-03T02:16:28.088Z,76689.16
2022-11-03T02:18:56.698Z,76684.94
2022-11-03T02:21:29.198Z,76682.81
2022-11-03T02:24:01.392Z,76693.41
2022-11-03T02:26:30.266Z,76689.16
2022-11-03T02:28:57.988Z,76695.53
2022-11-03T02:31:30.637Z,76697.63
2022-11-03T02:34:01.150Z,76706.09
2022-11-03T02:36:31.693Z,76712.47
2022-11-03T02:39:02.239Z,76718.81
2022-11-03T02:41:33.038Z,76727.28
2022-11-03T02:44:01.306Z,76733.63
2022-11-03T02:46:29.903Z,76739.97
2022-11-03T02:48:57.784Z,76752.69
2022-11-03T02:51:26.017Z,76769.63
2022-11-03T02:54:01.201Z,76782.31
2022-11-03T02:56:32.799Z,76795.00
2022-11-03T02:59:02.895Z,76803.47
2022-11-03T03:01:37.151Z,76809.84
2022-11-03T03:04:07.461Z,76811.94
2022-11-03T03:06:38.141Z,76805.59
2022-11-03T03:09:08.493Z,76811.94
2022-11-03T03:11:38.916Z,76820.41
2022-11-03T03:14:11.447Z,76833.13
2022-11-03T03:16:44.861Z,76833.13
2022-11-03T03:19:29.961Z,76835.25
2022-11-03T03:21:59.438Z,76839.47
2022-11-03T03:24:32.588Z,76850.06
2022-11-03T03:27:02.974Z,76854.28
2022-11-03T03:29:34.844Z,76862.75
2022-11-03T03:32:05.137Z,76858.53
2022-11-03T03:34:36.074Z,76854.28
2022-11-03T03:37:06.049Z,76856.41
2022-11-03T03:39:36.796Z,76858.53
2022-11-03T03:42:07.206Z,76847.94
2022-11-03T03:44:35.605Z,76858.53
2022-11-03T03:47:06.970Z,76862.75
2022-11-03T03:49:34.619Z,76873.34
2022-11-03T03:52:03.717Z,76862.75
2022-11-03T03:54:31.377Z,76862.75
2022-11-03T03:57:02.637Z,76871.22
2022-11-03T03:59:31.762Z,76873.34
2022-11-03T04:02:00.155Z,76888.16
2022-11-03T04:04:27.942Z,76890.28
2022-11-03T04:07:22.108Z,76883.94
2022-11-03T04:09:49.834Z,76888.16
2022-11-03T04:12:35.143Z,76900.88
2022-11-03T04:15:22.210Z,76905.09
2022-11-03T04:18:07.934Z,76911.44
2022-11-03T04:20:53.481Z,76913.56
2022-11-03T04:23:21.337Z,76917.78
2022-11-03T04:25:51.366Z,76911.44
2022-11-03T04:28:19.142Z,76919.91
2022-11-03T04:30:58.898Z,76930.50
2022-11-03T04:33:27.400Z,76938.97
2022-11-03T04:35:56.780Z,76941.09
2022-11-03T04:38:25.249Z,76943.19
2022-11-03T04:40:55.536Z,76964.38
2022-11-03T04:43:24.945Z,76983.44
2022-11-03T04:45:54.262Z,77002.47
2022-11-03T04:48:23.606Z,77015.19
2022-11-03T04:50:54.110Z,77034.22
2022-11-03T04:53:23.447Z,77046.94
2022-11-03T04:55:53.022Z,77042.69
2022-11-03T04:58:22.943Z,77044.81
2022-11-03T05:00:52.010Z,77049.06
2022-11-03T05:03:34.386Z,77053.28
2022-11-03T05:06:03.716Z,77053.28
2022-11-03T05:08:32.431Z,77040.59
2022-11-03T05:11:00.942Z,77040.59
2022-11-03T05:13:29.978Z,77044.81
2022-11-03T05:16:02.418Z,77046.94
2022-11-03T05:18:34.198Z,77051.16
2022-11-03T05:21:04.617Z,77049.06
2022-11-03T05:23:36.745Z,77066.00
2022-11-03T05:26:04.682Z,77085.03
2022-11-03T05:28:35.600Z,77074.47
2022-11-03T05:31:03.778Z,77072.34
2022-11-03T05:33:36.130Z,77070.22
2022-11-03T05:36:05.930Z,77055.41
2022-11-03T05:38:34.498Z,77051.16
2022-11-03T05:41:02.874Z,77049.06
2022-11-03T05:43:30.875Z,77046.94
2022-11-03T05:45:59.923Z,77034.22
2022-11-03T05:48:34.096Z,77044.81
2022-11-03T05:51:02.549Z,77055.41
2022-11-03T05:53:32.159Z,77066.00
2022-11-03T05:56:03.531Z,77070.22
2022-11-03T05:58:34.973Z,77061.75
2022-11-03T06:01:06.517Z,77063.88
2022-11-03T06:03:37.374Z,77070.22
2022-11-03T06:06:14.703Z,77053.28
2022-11-03T06:08:45.011Z,77053.28
2022-11-03T06:11:24.485Z,77053.28
2022-11-03T06:13:52.393Z,77074.47
2022-11-03T06:16:33.826Z,77061.75
2022-11-03T06:19:03.183Z,77080.81
2022-11-03T06:21:32.576Z,77057.53
2022-11-03T06:24:00.441Z,77070.22
2022-11-03T06:26:29.811Z,77053.28
2022-11-03T06:28:57.609Z,77053.28
2022-11-03T06:31:28.441Z,77044.81
2022-11-03T06:33:56.915Z,77036.34
2022-11-03T06:36:27.795Z,77034.22
2022-11-03T06:38:57.146Z,77036.34
2022-11-03T06:41:27.235Z,77032.13
2022-11-03T06:43:55.313Z,77027.88
2022-11-03T06:46:24.801Z,77017.28
2022-11-03T06:48:53.684Z,77010.94
2022-11-03T06:51:22.890Z,76989.78
2022-11-03T06:53:52.945Z,76972.84
2022-11-03T06:56:22.987Z,76955.91
2022-11-03T06:58:52.361Z,76919.91
2022-11-03T07:01:22.878Z,76837.34
2022-11-03T07:03:52.235Z,76608.72
2022-11-03T07:06:24.578Z,76394.94
2022-11-03T07:08:55.013Z,76236.19
2022-11-03T07:11:24.519Z,76143.06
2022-11-03T07:13:54.135Z,75992.78
2022-11-03T07:16:33.585Z,75914.47
2022-11-03T07:19:02.480Z,75897.53
2022-11-03T07:21:36.485Z,75842.53
2022-11-03T07:24:15.668Z,75609.72
2022-11-03T07:26:43.402Z,75503.91
2022-11-03T07:29:14.529Z,75294.41
2022-11-03T07:31:42.424Z,75315.56
2022-11-03T07:34:12.671Z,75222.47
2022-11-03T07:36:40.716Z,75199.19
2022-11-03T07:39:15.274Z,75165.31
2022-11-03T07:41:43.178Z,75146.28
2022-11-03T07:44:15.676Z,75120.88
2022-11-03T07:46:43.861Z,75173.78
2022-11-03T07:49:22.991Z,75427.72
2022-11-03T07:51:51.142Z,75666.84
2022-11-03T07:54:23.509Z,75776.91
2022-11-03T07:56:54.769Z,75889.06
2022-11-03T08:01:57.411Z,75986.44
2022-11-03T08:04:27.438Z,76056.28
2022-11-03T08:06:55.138Z,76033.00
2022-11-03T08:09:24.259Z,76033.00
2022-11-03T08:11:52.430Z,76041.47
2022-11-03T08:14:20.193Z,76064.75
2022-11-03T08:16:47.904Z,76102.84
2022-11-03T08:19:15.767Z,76075.31
2022-11-03T08:21:43.389Z,76098.59
2022-11-03T08:24:11.031Z,76102.84
2022-11-03T08:26:40.257Z,76073.22
2022-11-03T08:29:07.954Z,76068.97
2022-11-03T08:31:35.591Z,76083.78
2022-11-03T08:34:03.393Z,76092.25
2022-11-03T08:36:32.746Z,76077.44
2022-11-03T08:39:00.936Z,76052.03
2022-11-03T08:41:28.565Z,76054.16
2022-11-03T08:43:57.614Z,76035.13
2022-11-03T08:46:25.560Z,76011.84
2022-11-03T08:48:53.312Z,76033.00
2022-11-03T08:51:20.974Z,76009.72
2022-11-03T08:53:50.819Z,75984.31
2022-11-03T08:56:21.920Z,75948.34
2022-11-03T08:58:49.949Z,75935.63
2022-11-03T09:01:19.072Z,75939.88
2022-11-03T09:03:48.074Z,75916.59
2022-11-03T09:06:15.912Z,75899.66
2022-11-03T09:11:31.285Z,75927.19
2022-11-03T09:13:59.107Z,75963.16
2022-11-03T09:16:28.249Z,75990.66
2022-11-03T09:18:55.887Z,75939.88
2022-11-03T09:21:23.644Z,75939.88
2022-11-03T09:23:51.320Z,75997.03
2022-11-03T09:26:18.997Z,75950.44
2022-11-03T09:28:46.895Z,75937.75
2022-11-03T09:31:14.525Z,75922.94
2022-11-03T09:33:43.538Z,75922.94
2022-11-03T09:36:11.422Z,75969.50
2022-11-03T09:38:39.189Z,75967.38
2022-11-03T09:41:18.666Z,75980.09
2022-11-03T09:43:57.517Z,75980.09
2022-11-03T09:46:26.155Z,75977.97
2022-11-03T09:48:55.481Z,75958.91
2022-11-03T09:51:23.902Z,75958.91
2022-11-03T09:53:51.556Z,75965.28
2022-11-03T09:56:21.063Z,75918.72
2022-11-03T09:58:54.076Z,75878.50
2022-11-03T10:01:22.636Z,75853.09
2022-11-03T10:03:50.554Z,75838.28
2022-11-03T10:06:21.342Z,75855.22
2022-11-03T10:08:49.530Z,75815.00
2022-11-03T10:11:17.221Z,75804.41
2022-11-03T10:13:47.941Z,75812.88
2022-11-03T10:16:17.207Z,75812.88
2022-11-03T10:18:45.223Z,75859.44
2022-11-03T10:21:17.363Z,75884.84
2022-11-03T10:23:46.475Z,75857.34
2022-11-03T10:26:16.468Z,75874.25
2022-11-03T10:28:58.847Z,75834.06
2022-11-03T10:31:33.363Z,75804.41
2022-11-03T10:34:01.449Z,75804.41
2022-11-03T10:36:31.010Z,75762.09
2022-11-03T10:39:01.714Z,75757.88
2022-11-03T10:41:31.098Z,75734.59
2022-11-03T10:44:08.193Z,75772.69
2022-11-03T10:46:50.140Z,75795.97
2022-11-03T10:49:19.951Z,75880.63
2022-11-03T10:51:50.066Z,75861.56
2022-11-03T10:54:20.544Z,75829.81
2022-11-03T10:56:48.629Z,75793.84
2022-11-03T10:59:18.988Z,75766.31
2022-11-03T11:01:46.847Z,75766.31
2022-11-03T11:04:16.766Z,75751.50
2022-11-03T11:06:45.085Z,75743.03
2022-11-03T11:09:14.572Z,75696.50
2022-11-03T11:11:59.997Z,75668.97
2022-11-03T11:14:37.984Z,75628.75
2022-11-03T11:17:06.291Z,75633.00
2022-11-03T11:20:07.705Z,75645.69
2022-11-03T11:22:35.398Z,75607.59
2022-11-03T11:25:04.031Z,75626.66
2022-11-03T11:27:59.105Z,75715.53
2022-11-03T11:31:03.237Z,75749.41
2022-11-03T11:33:33.197Z,75753.63
2022-11-03T11:36:06.560Z,75730.34
2022-11-03T11:39:07.229Z,75685.91
2022-11-03T11:42:06.719Z,75603.38
2022-11-03T11:44:47.992Z,75537.75
2022-11-03T11:47:33.632Z,75493.31
2022-11-03T11:50:25.617Z,75478.50
2022-11-03T11:52:58.772Z,75525.06
2022-11-03T11:55:54.232Z,75474.28
2022-11-03T11:58:24.847Z,75455.22
2022-11-03T12:01:00.234Z,75465.81
2022-11-03T12:03:32.572Z,75360.00
2022-11-03T12:06:00.482Z,75237.28
2022-11-03T12:08:30.847Z,75127.22
2022-11-03T12:11:00.311Z,75192.84
2022-11-03T12:13:47.197Z,75214.00
2022-11-03T12:16:36.995Z,75067.97
2022-11-03T12:19:39.807Z,74909.28
2022-11-03T12:22:09.541Z,74837.34
2022-11-03T12:24:49.549Z,75021.44
2022-11-03T12:27:41.977Z,75110.31
2022-11-03T12:30:20.348Z,75002.38
2022-11-03T12:32:49.679Z,74875.44
2022-11-03T12:35:17.665Z,74784.44
2022-11-03T12:37:45.981Z,74716.75
2022-11-03T12:40:14.875Z,75010.84
2022-11-03T12:42:42.926Z,74991.81
2022-11-03T12:45:13.643Z,74974.88
2022-11-03T12:47:41.728Z,74979.13
2022-11-03T12:50:11.194Z,74962.19
2022-11-03T12:52:39.103Z,74957.97
2022-11-03T12:55:07.241Z,75167.44
2022-11-03T12:57:34.919Z,75256.31
2022-11-03T13:00:02.592Z,75317.69
2022-11-03T13:02:31.692Z,75260.53
2022-11-03T13:04:59.497Z,75262.66
2022-11-03T13:07:34.364Z,75188.59
2022-11-03T13:10:04.798Z,75182.25
2022-11-03T13:12:32.517Z,75237.28
2022-11-03T13:15:00.785Z,75271.13
2022-11-03T13:17:35.750Z,75247.84
2022-11-03T13:20:16.237Z,75309.22
2022-11-03T13:22:45.338Z,75271.13
2022-11-03T13:25:12.997Z,75258.44
2022-11-03T13:27:40.738Z,75254.19
2022-11-03T13:30:09.833Z,75273.25
2022-11-03T13:32:37.498Z,75338.84
2022-11-03T13:35:10.862Z,75419.25
2022-11-03T13:37:41.100Z,75493.31
2022-11-03T13:40:29.426Z,75503.91
2022-11-03T13:43:00.114Z,75497.56
2022-11-03T13:45:28.003Z,75480.63
2022-11-03T13:50:43.412Z,75571.63
2022-11-03T13:56:05.247Z,75529.31
2022-11-03T14:01:24.115Z,75575.84
2022-11-03T14:06:40.538Z,75622.41
2022-11-03T14:09:08.273Z,75641.47
2022-11-03T14:11:55.022Z,75666.84
2022-11-03T14:14:22.787Z,75696.50
2022-11-03T14:16:50.507Z,75732.47
2022-11-03T14:19:18.279Z,75753.63
2022-11-03T14:21:46.103Z,75762.09
2022-11-03T14:24:13.792Z,75783.25
2022-11-03T14:26:43.480Z,75798.06
2022-11-03T14:29:11.442Z,75823.47
2022-11-03T14:31:39.070Z,75825.59
2022-11-03T14:34:06.789Z,75838.28
2022-11-03T14:36:35.127Z,75874.25
2022-11-03T14:39:02.777Z,75878.50
2022-11-03T14:41:52.249Z,75901.78
2022-11-03T14:44:22.683Z,75916.59
2022-11-03T14:46:50.599Z,75927.19
2022-11-03T14:49:20.286Z,75925.06
2022-11-03T14:51:48.104Z,75916.59
2022-11-03T14:54:15.774Z,75914.47
2022-11-03T14:56:43.649Z,75918.72
2022-11-03T14:59:11.340Z,75931.41
2022-11-03T15:01:40.466Z,75965.28
2022-11-03T15:04:08.908Z,76007.59
2022-11-03T15:06:37.160Z,76026.66
2022-11-03T15:09:05.523Z,76035.13
2022-11-03T15:11:33.670Z,76041.47
2022-11-03T15:14:02.354Z,76062.63
2022-11-03T15:16:30.124Z,76075.31
2022-11-03T15:18:59.633Z,76066.88
2022-11-03T15:21:28.094Z,76066.88
2022-11-03T15:26:43.475Z,76073.22
2022-11-03T15:29:11.314Z,76088.03
2022-11-03T15:31:44.502Z,76117.66
2022-11-03T15:34:16.803Z,76155.75
2022-11-03T15:36:44.614Z,76151.53
2022-11-03T15:39:13.170Z,76151.53
2022-11-03T15:41:40.928Z,76168.47
2022-11-03T15:44:08.985Z,76208.66
2022-11-03T15:46:37.532Z,76225.59
2022-11-03T15:49:05.601Z,76202.31
2022-11-03T15:51:34.941Z,76210.78
2022-11-03T15:54:03.242Z,76227.72
2022-11-03T15:56:31.304Z,76236.19
2022-11-03T15:58:58.927Z,76257.34
2022-11-03T16:01:27.034Z,76282.75
2022-11-03T16:03:55.032Z,76274.28
2022-11-03T16:06:40.212Z,76261.59
2022-11-03T16:09:24.985Z,76253.13
2022-11-03T16:11:53.638Z,76261.59
2022-11-03T16:14:21.347Z,76257.34
2022-11-03T16:16:49.124Z,76261.59
2022-11-03T16:19:16.786Z,76253.13
2022-11-03T16:21:44.458Z,76261.59
2022-11-03T16:24:13.512Z,76272.16
2022-11-03T16:26:41.395Z,76291.22
2022-11-03T16:29:09.283Z,76295.47
2022-11-03T16:31:37.283Z,76297.56
2022-11-03T16:34:06.146Z,76299.69
2022-11-03T16:36:33.964Z,76301.81
2022-11-03T16:39:01.919Z,76318.75
2022-11-03T16:41:31.921Z,76333.56
2022-11-03T16:43:59.546Z,76350.50
2022-11-03T16:46:27.437Z,76350.50
2022-11-03T16:48:56.386Z,76371.66
2022-11-03T16:51:24.082Z,76394.94
2022-11-03T16:53:52.854Z,76409.75
2022-11-03T16:56:20.516Z,76435.16
2022-11-03T16:58:49.537Z,76473.25
2022-11-03T17:01:18.338Z,76498.66
2022-11-03T17:03:46.110Z,76511.34
2022-11-03T17:06:13.724Z,76505.00
2022-11-03T17:08:56.970Z,76505.00
2022-11-03T17:11:37.316Z,76498.66
2022-11-03T17:14:08.728Z,76485.97
2022-11-03T17:16:36.638Z,76475.38
2022-11-03T17:19:04.585Z,76464.78
2022-11-03T17:21:34.162Z,76454.22
2022-11-03T17:24:01.831Z,76452.09
2022-11-03T17:26:40.333Z,76456.31
2022-11-03T17:29:13.214Z,76456.31
2022-11-03T17:31:40.938Z,76456.31
2022-11-03T17:34:09.862Z,76464.78
2022-11-03T17:36:37.521Z,76460.56
2022-11-03T17:39:05.352Z,76458.44
2022-11-03T17:41:38.829Z,76466.91
2022-11-03T17:44:12.061Z,76464.78
2022-11-03T17:46:40.182Z,76454.22
2022-11-03T17:49:08.525Z,76456.31
2022-11-03T17:51:37.121Z,76447.84
2022-11-03T17:54:08.084Z,76452.09
2022-11-03T17:56:36.431Z,76445.75
2022-11-03T17:59:04.556Z,76439.38
2022-11-03T18:01:33.689Z,76430.91
2022-11-03T18:04:02.885Z,76424.56
2022-11-03T18:06:30.676Z,76409.75
2022-11-03T18:08:59.341Z,76403.41
2022-11-03T18:11:47.074Z,76397.06
2022-11-03T18:14:14.841Z,76397.06
2022-11-03T18:16:43.825Z,76388.59
2022-11-03T18:19:13.015Z,76392.81
2022-11-03T18:21:41.027Z,76397.06
2022-11-03T18:24:12.312Z,76388.59
2022-11-03T18:26:40.560Z,76405.53
2022-11-03T18:29:08.870Z,76401.28
2022-11-03T18:31:38.851Z,76401.28
2022-11-03T18:34:13.288Z,76394.94
2022-11-03T18:36:41.061Z,76390.69
2022-11-03T18:39:09.140Z,76388.59
2022-11-03T18:41:44.126Z,76380.13
2022-11-03T18:44:16.399Z,76371.66
2022-11-03T18:46:44.569Z,76363.19
2022-11-03T18:49:14.866Z,76356.84
2022-11-03T18:51:46.329Z,76348.38
2022-11-03T18:54:15.651Z,76335.66
2022-11-03T18:56:43.553Z,76331.44
2022-11-03T18:59:20.664Z,76333.56
2022-11-03T19:01:48.629Z,76322.97
2022-11-03T19:04:18.066Z,76325.09
2022-11-03T19:06:47.011Z,76312.38
2022-11-03T19:09:16.984Z,76316.63
2022-11-03T19:11:45.138Z,76316.63
2022-11-03T19:14:20.603Z,76312.38
2022-11-03T19:19:50.657Z,76316.63
2022-11-03T19:22:20.231Z,76314.50
2022-11-03T19:24:48.307Z,76322.97
2022-11-03T19:27:18.249Z,76308.16
2022-11-03T19:29:47.127Z,76303.91
2022-11-03T19:32:18.912Z,76303.91
2022-11-03T19:34:49.544Z,76291.22
2022-11-03T19:37:17.387Z,76276.41
2022-11-03T19:39:45.657Z,76280.63
2022-11-03T19:42:33.067Z,76280.63
2022-11-03T19:45:02.346Z,76274.28
2022-11-03T19:47:34.664Z,76274.28
2022-11-03T19:50:07.357Z,76278.53
2022-11-03T19:52:36.291Z,76280.63
2022-11-03T19:55:05.616Z,76278.53
2022-11-03T19:57:33.740Z,76278.53
2022-11-03T20:00:01.886Z,76282.75
2022-11-03T20:02:29.729Z,76274.28
2022-11-03T20:04:58.027Z,76297.56
2022-11-03T20:07:31.724Z,76306.03
2022-11-03T20:10:01.160Z,76299.69
2022-11-03T20:12:30.713Z,76291.22
2022-11-03T20:14:58.672Z,76301.81
2022-11-03T20:17:27.137Z,76310.28
2022-11-03T20:19:54.848Z,76318.75
2022-11-03T20:22:27.863Z,76312.38
2022-11-03T20:24:59.334Z,76316.63
2022-11-03T20:27:27.004Z,76312.38
2022-11-03T20:29:54.687Z,76318.75
2022-11-03T20:32:23.094Z,76316.63
2022-11-03T20:34:51.042Z,76320.84
2022-11-03T20:37:20.302Z,76325.09
2022-11-03T20:39:49.920Z,76325.09
2022-11-03T20:42:21.560Z,76325.09
2022-11-03T20:44:50.658Z,76320.84
2022-11-03T20:47:18.662Z,76329.31
2022-11-03T20:49:46.797Z,76331.44
2022-11-03T20:52:15.915Z,76333.56
2022-11-03T20:54:44.378Z,76325.09
2022-11-03T20:57:12.859Z,76322.97
2022-11-03T20:59:41.903Z,76314.50
2022-11-03T21:02:11.976Z,76310.28
2022-11-03T21:04:41.691Z,76310.28
2022-11-03T21:07:12.643Z,76310.28
2022-11-03T21:09:40.326Z,76308.16
2022-11-03T21:12:12.337Z,76301.81
2022-11-03T21:15:03.014Z,76289.09
2022-11-03T21:17:48.049Z,76282.75
2022-11-03T21:20:15.945Z,76287.00
2022-11-03T21:22:54.679Z,76287.00
2022-11-03T21:25:24.642Z,76291.22
2022-11-03T21:27:54.029Z,76316.63
2022-11-03T21:30:25.224Z,76322.97
2022-11-03T21:32:53.754Z,76318.75
2022-11-03T21:35:22.861Z,76325.09
2022-11-03T21:37:50.578Z,76320.84
2022-11-03T21:40:18.696Z,76320.84
2022-11-03T21:43:03.913Z,76331.44
2022-11-03T21:45:32.966Z,76337.78
2022-11-03T21:48:19.048Z,76337.78
2022-11-03T21:50:48.117Z,76316.63
2022-11-03T21:53:17.233Z,76306.03
2022-11-03T21:55:47.316Z,76295.47
2022-11-03T21:58:15.701Z,76299.69
2022-11-03T22:00:46.988Z,76306.03
2022-11-03T22:03:15.212Z,76297.56
2022-11-03T22:05:42.868Z,76280.63
2022-11-03T22:08:13.179Z,76263.72
2022-11-03T22:10:41.255Z,76270.06
2022-11-03T22:13:09.370Z,76287.00
2022-11-03T22:16:00.057Z,76278.53
2022-11-03T22:18:31.374Z,76289.09
2022-11-03T22:21:16.426Z,76276.41
2022-11-03T22:24:10.113Z,76272.16
2022-11-03T22:26:55.267Z,76265.81
2022-11-03T22:29:41.542Z,76259.47
2022-11-03T22:32:14.489Z,76253.13
2022-11-03T22:35:01.040Z,76246.78
2022-11-03T22:40:13.692Z,76236.19
2022-11-03T22:42:59.133Z,76229.84
2022-11-03T22:45:43.595Z,76225.59
2022-11-03T22:48:12.651Z,76206.56
2022-11-03T22:50:41.723Z,76210.78
2022-11-03T22:53:23.390Z,76210.78
2022-11-03T22:55:51.098Z,76202.31
2022-11-03T22:58:18.849Z,76200.22
2022-11-03T23:00:47.542Z,76198.09
2022-11-03T23:03:15.367Z,76195.97
2022-11-03T23:05:44.356Z,76181.16
2022-11-03T23:08:12.069Z,76170.56
2022-11-03T23:10:39.821Z,76162.09
2022-11-03T23:13:07.589Z,76151.53
2022-11-03T23:15:35.464Z,76145.19
2022-11-03T23:18:22.523Z,76143.06
2022-11-03T23:21:09.771Z,76147.28
2022-11-03T23:23:56.219Z,76172.69
2022-11-03T23:26:25.480Z,76202.31
2022-11-03T23:28:53.305Z,76200.22
2022-11-03T23:31:21.012Z,76202.31
2022-11-03T23:33:48.799Z,76202.31
2022-11-03T23:36:18.764Z,76185.38
2022-11-03T23:38:46.658Z,76183.28
2022-11-03T23:41:16.296Z,76174.81
2022-11-03T23:43:44.757Z,76162.09
2022-11-03T23:46:30.981Z,76153.63
2022-11-03T23:48:59.014Z,76155.75
2022-11-03T23:51:29.430Z,76155.75
2022-11-03T23:53:58.457Z,76168.47
2022-11-03T23:56:54.568Z,76172.69
2022-11-03T23:59:22.365Z,76162.09
